39°F Temp
37°F Dewpoint
93% Humidity
Temperature
5 MPH
8 KM/H
4 KTS
300°
West North
West

Wind Speed
Light Rain
Showers
Pressure 1015 (hPa) - 29.98 (in)
Visibility 2.0 (mi) - 3.2 (km)

Current Conditions
KTZR
Location Bolton Field 6km (3.2mi)
Metar :KTZR 192150Z 30004KT 2SM -RA BR OVC003 04/03 A2998
Mon 19th November 16:50 pm

Airport
  Metar Aviation API Data Provided by https://www.checkwx.com/ PHP scripts by weather34.com ©2018